Terminal Aerodrome Forecast
Issued by NWS Amarillo, TX

Home | Current Version | Previous Version | Text Only | Print | Product List | Glossary On
Versions: 1 2 3 4 5 6 7 8 9 10 11 12 13 14 15 16 17 18 19
000
FTUS44 KAMA 200345 AAC
TAFGUY
TAF AMD
KGUY 200345Z 2004/2024 08007KT 1SM BR OVC002
      TEMPO 2004/2006 1/2SM FG
     FM200600 VRB04KT 3SM BR BKN010
     FM201600 25017G27KT P6SM BKN300=

USA.gov is the U.S. government's official web portal to all federal, state and local government web resources and services.